Terminal Aerodrome Forecast
Issued by NWS

Home | Current Version | Previous Version | Text Only | Print | Product List | Glossary On
Versions: 1 2 3 4 5 6 7 8 9 10 11 12 13 14 15
000
FTUS41 KPBZ 301700 RRA
TAFMGW
TAF
KMGW 301741Z 3018/0118 27005KT P6SM OVC150
     FM301900 28008KT 2SM -SHRA VCTS OVC020CB
     FM302100 30006KT 3SM BR OVC010
     FM010300 36005KT P6SM OVC020
     FM011500 12005KT P6SM BKN035=

USA.gov is the U.S. government's official web portal to all federal, state and local government web resources and services.